sensor_id;sensor_type;location;lat;lon;timestamp;P1;durP1;ratioP1;P2;durP2;ratioP2
53875;SDS011;39789;53.216;5.624;2024-03-23T00:53:11;13.05;;;4.72;;
53875;SDS011;39789;53.216;5.624;2024-03-23T00:55:37;17.42;;;5.43;;
53875;SDS011;39789;53.216;5.624;2024-03-23T00:58:03;18.63;;;5.38;;
53875;SDS011;39789;53.216;5.624;2024-03-23T01:00:29;12.65;;;4.15;;
53875;SDS011;39789;53.216;5.624;2024-03-23T01:02:54;16.15;;;4.35;;
53875;SDS011;39789;53.216;5.624;2024-03-23T01:05:20;12.70;;;4.97;;
53875;SDS011;39789;53.216;5.624;2024-03-23T01:07:46;15.73;;;4.63;;
53875;SDS011;39789;53.216;5.624;2024-03-23T01:10:11;14.02;;;4.25;;
53875;SDS011;39789;53.216;5.624;2024-03-23T01:12:37;12.93;;;4.65;;
53875;SDS011;39789;53.216;5.624;2024-03-23T01:15:03;12.23;;;3.70;;
53875;SDS011;39789;53.216;5.624;2024-03-23T01:17:28;18.23;;;4.50;;
53875;SDS011;39789;53.216;5.624;2024-03-23T01:19:54;9.77;;;3.95;;
53875;SDS011;39789;53.216;5.624;2024-03-23T01:22:20;17.88;;;4.88;;
53875;SDS011;39789;53.216;5.624;2024-03-23T01:24:45;13.43;;;4.72;;
53875;SDS011;39789;53.216;5.624;2024-03-23T01:27:12;12.30;;;3.72;;
53875;SDS011;39789;53.216;5.624;2024-03-23T01:29:37;11.57;;;3.58;;
53875;SDS011;39789;53.216;5.624;2024-03-23T01:32:04;11.85;;;3.95;;
53875;SDS011;39789;53.216;5.624;2024-03-23T01:34:30;16.15;;;3.78;;
53875;SDS011;39789;53.216;5.624;2024-03-23T01:36:55;12.68;;;4.43;;
53875;SDS011;39789;53.216;5.624;2024-03-23T01:39:21;13.00;;;3.95;;
53875;SDS011;39789;53.216;5.624;2024-03-23T01:41:47;12.50;;;3.65;;
53875;SDS011;39789;53.216;5.624;2024-03-23T01:44:12;13.48;;;3.88;;
53875;SDS011;39789;53.216;5.624;2024-03-23T01:46:38;14.73;;;4.28;;
53875;SDS011;39789;53.216;5.624;2024-03-23T01:49:04;10.82;;;3.58;;
53875;SDS011;39789;53.216;5.624;2024-03-23T01:51:30;13.50;;;4.30;;
53875;SDS011;39789;53.216;5.624;2024-03-23T01:53:57;11.95;;;4.25;;
53875;SDS011;39789;53.216;5.624;2024-03-23T01:56:26;13.10;;;3.83;;
53875;SDS011;39789;53.216;5.624;2024-03-23T01:58:51;18.48;;;4.75;;
53875;SDS011;39789;53.216;5.624;2024-03-23T02:01:17;10.32;;;3.30;;
53875;SDS011;39789;53.216;5.624;2024-03-23T02:03:44;15.65;;;4.18;;
53875;SDS011;39789;53.216;5.624;2024-03-23T02:06:10;11.25;;;4.80;;
53875;SDS011;39789;53.216;5.624;2024-03-23T02:08:36;12.90;;;4.40;;
53875;SDS011;39789;53.216;5.624;2024-03-23T02:11:01;12.30;;;4.75;;
53875;SDS011;39789;53.216;5.624;2024-03-23T02:13:27;13.02;;;4.13;;
53875;SDS011;39789;53.216;5.624;2024-03-23T02:15:53;17.70;;;4.75;;
53875;SDS011;39789;53.216;5.624;2024-03-23T02:18:19;13.82;;;4.30;;
53875;SDS011;39789;53.216;5.624;2024-03-23T02:20:44;15.30;;;4.35;;
53875;SDS011;39789;53.216;5.624;2024-03-23T02:23:13;12.93;;;4.18;;
53875;SDS011;39789;53.216;5.624;2024-03-23T02:25:40;13.88;;;4.05;;
53875;SDS011;39789;53.216;5.624;2024-03-23T02:28:06;16.08;;;4.22;;
53875;SDS011;39789;53.216;5.624;2024-03-23T02:30:31;17.20;;;4.65;;
53875;SDS011;39789;53.216;5.624;2024-03-23T02:32:57;18.33;;;4.60;;
53875;SDS011;39789;53.216;5.624;2024-03-23T02:35:23;18.58;;;4.85;;
53875;SDS011;39789;53.216;5.624;2024-03-23T02:37:49;17.65;;;4.60;;
53875;SDS011;39789;53.216;5.624;2024-03-23T02:40:15;16.55;;;4.93;;
53875;SDS011;39789;53.216;5.624;2024-03-23T02:42:41;16.25;;;4.57;;
53875;SDS011;39789;53.216;5.624;2024-03-23T02:45:07;16.85;;;4.78;;
53875;SDS011;39789;53.216;5.624;2024-03-23T02:47:33;17.88;;;4.82;;
53875;SDS011;39789;53.216;5.624;2024-03-23T02:49:58;14.27;;;4.40;;
53875;SDS011;39789;53.216;5.624;2024-03-23T02:52:24;15.70;;;4.57;;
53875;SDS011;39789;53.216;5.624;2024-03-23T02:54:50;14.13;;;4.55;;
53875;SDS011;39789;53.216;5.624;2024-03-23T02:57:15;14.93;;;4.90;;
53875;SDS011;39789;53.216;5.624;2024-03-23T02:59:41;18.05;;;4.85;;
53875;SDS011;39789;53.216;5.624;2024-03-23T03:02:07;17.35;;;4.65;;
53875;SDS011;39789;53.216;5.624;2024-03-23T03:04:33;14.27;;;4.70;;
53875;SDS011;39789;53.216;5.624;2024-03-23T03:06:58;19.17;;;4.45;;
53875;SDS011;39789;53.216;5.624;2024-03-23T03:09:25;20.63;;;5.18;;
53875;SDS011;39789;53.216;5.624;2024-03-23T03:11:50;17.30;;;4.30;;
53875;SDS011;39789;53.216;5.624;2024-03-23T03:14:16;17.15;;;5.07;;
53875;SDS011;39789;53.216;5.624;2024-03-23T03:16:42;16.83;;;4.47;;
53875;SDS011;39789;53.216;5.624;2024-03-23T03:19:07;12.70;;;3.92;;
53875;SDS011;39789;53.216;5.624;2024-03-23T03:21:34;14.18;;;3.78;;
53875;SDS011;39789;53.216;5.624;2024-03-23T03:24:00;12.48;;;4.60;;
53875;SDS011;39789;53.216;5.624;2024-03-23T03:26:25;15.50;;;4.32;;
53875;SDS011;39789;53.216;5.624;2024-03-23T03:28:51;15.77;;;4.25;;
53875;SDS011;39789;53.216;5.624;2024-03-23T03:31:17;17.58;;;4.13;;
53875;SDS011;39789;53.216;5.624;2024-03-23T03:33:44;16.17;;;4.15;;
53875;SDS011;39789;53.216;5.624;2024-03-23T03:36:10;13.82;;;4.85;;
53875;SDS011;39789;53.216;5.624;2024-03-23T03:38:36;14.73;;;4.28;;
53875;SDS011;39789;53.216;5.624;2024-03-23T03:41:02;16.58;;;4.63;;
53875;SDS011;39789;53.216;5.624;2024-03-23T03:43:28;16.85;;;4.00;;
53875;SDS011;39789;53.216;5.624;2024-03-23T03:45:54;15.85;;;4.40;;
53875;SDS011;39789;53.216;5.624;2024-03-23T03:48:20;13.73;;;4.00;;
53875;SDS011;39789;53.216;5.624;2024-03-23T03:50:46;15.43;;;4.93;;
53875;SDS011;39789;53.216;5.624;2024-03-23T03:53:12;10.40;;;4.22;;
53875;SDS011;39789;53.216;5.624;2024-03-23T03:55:38;12.15;;;3.72;;
53875;SDS011;39789;53.216;5.624;2024-03-23T03:58:03;9.52;;;3.55;;
53875;SDS011;39789;53.216;5.624;2024-03-23T04:00:32;11.90;;;3.88;;
53875;SDS011;39789;53.216;5.624;2024-03-23T04:02:57;14.20;;;3.92;;
53875;SDS011;39789;53.216;5.624;2024-03-23T04:05:23;18.80;;;4.47;;
53875;SDS011;39789;53.216;5.624;2024-03-23T04:07:49;11.13;;;3.50;;
53875;SDS011;39789;53.216;5.624;2024-03-23T04:10:15;9.02;;;2.95;;
53875;SDS011;39789;53.216;5.624;2024-03-23T04:12:41;8.32;;;2.90;;
53875;SDS011;39789;53.216;5.624;2024-03-23T04:15:08;8.52;;;2.88;;
53875;SDS011;39789;53.216;5.624;2024-03-23T04:17:33;12.48;;;3.53;;
53875;SDS011;39789;53.216;5.624;2024-03-23T04:19:59;10.73;;;3.15;;
53875;SDS011;39789;53.216;5.624;2024-03-23T04:22:26;9.70;;;3.38;;
53875;SDS011;39789;53.216;5.624;2024-03-23T04:24:55;12.80;;;3.20;;
53875;SDS011;39789;53.216;5.624;2024-03-23T04:27:22;9.48;;;3.13;;
53875;SDS011;39789;53.216;5.624;2024-03-23T04:29:51;11.48;;;3.60;;
53875;SDS011;39789;53.216;5.624;2024-03-23T04:32:20;19.30;;;4.35;;
53875;SDS011;39789;53.216;5.624;2024-03-23T04:34:45;10.73;;;3.65;;
53875;SDS011;39789;53.216;5.624;2024-03-23T04:37:11;10.32;;;3.88;;
53875;SDS011;39789;53.216;5.624;2024-03-23T04:39:37;10.23;;;3.83;;
53875;SDS011;39789;53.216;5.624;2024-03-23T04:42:03;14.18;;;3.22;;
53875;SDS011;39789;53.216;5.624;2024-03-23T04:44:30;9.45;;;3.08;;
53875;SDS011;39789;53.216;5.624;2024-03-23T04:47:00;17.63;;;4.22;;
53875;SDS011;39789;53.216;5.624;2024-03-23T04:49:26;16.60;;;4.00;;
53875;SDS011;39789;53.216;5.624;2024-03-23T04:51:52;8.40;;;3.25;;
53875;SDS011;39789;53.216;5.624;2024-03-23T04:54:17;8.60;;;2.90;;
53875;SDS011;39789;53.216;5.624;2024-03-23T04:56:43;10.25;;;3.28;;
53875;SDS011;39789;53.216;5.624;2024-03-23T04:59:09;9.73;;;3.80;;
53875;SDS011;39789;53.216;5.624;2024-03-23T05:01:35;11.20;;;3.78;;
53875;SDS011;39789;53.216;5.624;2024-03-23T05:04:03;9.45;;;3.50;;
53875;SDS011;39789;53.216;5.624;2024-03-23T05:06:30;11.43;;;3.90;;
53875;SDS011;39789;53.216;5.624;2024-03-23T05:08:56;11.25;;;3.60;;
53875;SDS011;39789;53.216;5.624;2024-03-23T05:11:21;13.40;;;3.28;;
53875;SDS011;39789;53.216;5.624;2024-03-23T05:13:47;14.45;;;4.10;;
53875;SDS011;39789;53.216;5.624;2024-03-23T05:16:13;11.85;;;4.55;;
53875;SDS011;39789;53.216;5.624;2024-03-23T05:18:38;9.20;;;4.05;;
53875;SDS011;39789;53.216;5.624;2024-03-23T05:21:04;14.18;;;4.20;;
53875;SDS011;39789;53.216;5.624;2024-03-23T05:23:30;11.32;;;3.90;;
53875;SDS011;39789;53.216;5.624;2024-03-23T05:25:55;14.88;;;4.18;;
53875;SDS011;39789;53.216;5.624;2024-03-23T05:28:21;15.65;;;4.05;;
53875;SDS011;39789;53.216;5.624;2024-03-23T05:30:51;11.82;;;3.80;;
53875;SDS011;39789;53.216;5.624;2024-03-23T05:33:19;11.13;;;4.10;;
53875;SDS011;39789;53.216;5.624;2024-03-23T05:35:45;11.90;;;3.50;;
53875;SDS011;39789;53.216;5.624;2024-03-23T05:38:12;9.23;;;3.80;;
53875;SDS011;39789;53.216;5.624;2024-03-23T05:40:39;19.30;;;3.65;;
53875;SDS011;39789;53.216;5.624;2024-03-23T05:43:05;15.00;;;4.38;;
53875;SDS011;39789;53.216;5.624;2024-03-23T05:45:32;11.27;;;3.90;;
53875;SDS011;39789;53.216;5.624;2024-03-23T05:48:01;10.73;;;4.05;;
53875;SDS011;39789;53.216;5.624;2024-03-23T05:50:27;11.57;;;3.92;;
53875;SDS011;39789;53.216;5.624;2024-03-23T05:52:55;14.55;;;3.85;;
53875;SDS011;39789;53.216;5.624;2024-03-23T05:55:21;14.75;;;4.15;;
53875;SDS011;39789;53.216;5.624;2024-03-23T05:57:52;12.85;;;3.42;;
53875;SDS011;39789;53.216;5.624;2024-03-23T06:00:17;10.93;;;3.35;;
53875;SDS011;39789;53.216;5.624;2024-03-23T06:02:45;9.77;;;2.55;;
53875;SDS011;39789;53.216;5.624;2024-03-23T06:05:11;8.43;;;3.20;;
53875;SDS011;39789;53.216;5.624;2024-03-23T06:07:40;11.27;;;3.38;;
53875;SDS011;39789;53.216;5.624;2024-03-23T06:10:06;9.13;;;3.40;;
53875;SDS011;39789;53.216;5.624;2024-03-23T06:12:32;10.85;;;3.05;;
53875;SDS011;39789;53.216;5.624;2024-03-23T06:14:57;19.00;;;3.60;;
53875;SDS011;39789;53.216;5.624;2024-03-23T06:17:23;7.57;;;3.10;;
53875;SDS011;39789;53.216;5.624;2024-03-23T06:19:49;9.63;;;3.58;;
53875;SDS011;39789;53.216;5.624;2024-03-23T06:22:15;14.18;;;4.38;;
53875;SDS011;39789;53.216;5.624;2024-03-23T06:24:41;10.38;;;3.72;;
53875;SDS011;39789;53.216;5.624;2024-03-23T06:27:06;7.65;;;2.78;;
53875;SDS011;39789;53.216;5.624;2024-03-23T06:29:32;6.47;;;2.33;;
53875;SDS011;39789;53.216;5.624;2024-03-23T06:31:59;5.47;;;2.15;;
53875;SDS011;39789;53.216;5.624;2024-03-23T06:34:24;6.82;;;2.58;;
53875;SDS011;39789;53.216;5.624;2024-03-23T06:36:50;5.45;;;2.53;;
53875;SDS011;39789;53.216;5.624;2024-03-23T06:39:16;7.65;;;3.05;;
53875;SDS011;39789;53.216;5.624;2024-03-23T06:41:51;12.82;;;3.92;;
53875;SDS011;39789;53.216;5.624;2024-03-23T06:44:18;9.48;;;4.10;;
53875;SDS011;39789;53.216;5.624;2024-03-23T06:46:45;8.82;;;3.50;;
53875;SDS011;39789;53.216;5.624;2024-03-23T06:49:11;9.13;;;3.00;;
53875;SDS011;39789;53.216;5.624;2024-03-23T06:51:36;9.27;;;3.08;;
53875;SDS011;39789;53.216;5.624;2024-03-23T06:54:05;12.57;;;4.00;;
53875;SDS011;39789;53.216;5.624;2024-03-23T06:56:31;8.23;;;3.15;;
53875;SDS011;39789;53.216;5.624;2024-03-23T06:58:57;12.05;;;3.55;;
53875;SDS011;39789;53.216;5.624;2024-03-23T07:01:25;7.78;;;2.85;;
53875;SDS011;39789;53.216;5.624;2024-03-23T07:03:50;9.45;;;3.30;;
53875;SDS011;39789;53.216;5.624;2024-03-23T07:06:16;11.65;;;3.28;;
53875;SDS011;39789;53.216;5.624;2024-03-23T07:08:42;10.52;;;3.05;;
53875;SDS011;39789;53.216;5.624;2024-03-23T07:11:07;5.90;;;3.13;;
53875;SDS011;39789;53.216;5.624;2024-03-23T07:13:33;6.15;;;2.83;;
53875;SDS011;39789;53.216;5.624;2024-03-23T07:15:58;7.55;;;2.83;;
53875;SDS011;39789;53.216;5.624;2024-03-23T07:18:25;6.40;;;2.40;;
53875;SDS011;39789;53.216;5.624;2024-03-23T07:20:57;7.68;;;2.42;;
53875;SDS011;39789;53.216;5.624;2024-03-23T07:23:24;7.22;;;2.65;;
53875;SDS011;39789;53.216;5.624;2024-03-23T07:25:59;11.32;;;3.13;;
53875;SDS011;39789;53.216;5.624;2024-03-23T07:28:26;8.32;;;2.80;;
53875;SDS011;39789;53.216;5.624;2024-03-23T07:31:14;8.90;;;3.05;;
53875;SDS011;39789;53.216;5.624;2024-03-23T07:36:10;10.63;;;3.25;;
53875;SDS011;39789;53.216;5.624;2024-03-23T07:38:36;11.50;;;3.55;;
53875;SDS011;39789;53.216;5.624;2024-03-23T07:41:08;9.20;;;2.88;;
53875;SDS011;39789;53.216;5.624;2024-03-23T07:43:38;10.23;;;3.42;;
53875;SDS011;39789;53.216;5.624;2024-03-23T07:46:05;8.68;;;3.47;;
53875;SDS011;39789;53.216;5.624;2024-03-23T07:48:31;9.13;;;3.40;;
53875;SDS011;39789;53.216;5.624;2024-03-23T07:51:01;10.60;;;3.40;;
53875;SDS011;39789;53.216;5.624;2024-03-23T07:53:33;9.40;;;3.08;;
53875;SDS011;39789;53.216;5.624;2024-03-23T07:56:03;8.02;;;2.90;;
53875;SDS011;39789;53.216;5.624;2024-03-23T07:58:33;12.13;;;3.30;;
53875;SDS011;39789;53.216;5.624;2024-03-23T08:01:03;10.38;;;3.08;;
53875;SDS011;39789;53.216;5.624;2024-03-23T08:03:32;11.10;;;3.70;;
53875;SDS011;39789;53.216;5.624;2024-03-23T08:06:06;12.57;;;4.03;;
53875;SDS011;39789;53.216;5.624;2024-03-23T08:08:42;9.52;;;3.35;;
53875;SDS011;39789;53.216;5.624;2024-03-23T08:11:11;9.23;;;3.05;;
53875;SDS011;39789;53.216;5.624;2024-03-23T08:13:41;12.18;;;3.33;;
53875;SDS011;39789;53.216;5.624;2024-03-23T08:16:09;9.07;;;3.28;;
53875;SDS011;39789;53.216;5.624;2024-03-23T08:18:35;7.90;;;3.08;;
53875;SDS011;39789;53.216;5.624;2024-03-23T08:21:02;12.48;;;3.47;;
53875;SDS011;39789;53.216;5.624;2024-03-23T08:23:29;10.07;;;2.83;;
53875;SDS011;39789;53.216;5.624;2024-03-23T08:26:00;6.13;;;2.63;;
53875;SDS011;39789;53.216;5.624;2024-03-23T08:28:26;11.50;;;2.85;;
53875;SDS011;39789;53.216;5.624;2024-03-23T08:30:53;11.73;;;3.65;;
53875;SDS011;39789;53.216;5.624;2024-03-23T08:33:21;7.22;;;2.83;;
53875;SDS011;39789;53.216;5.624;2024-03-23T08:35:54;11.35;;;2.72;;
53875;SDS011;39789;53.216;5.624;2024-03-23T08:38:21;10.05;;;3.17;;
53875;SDS011;39789;53.216;5.624;2024-03-23T08:40:57;9.55;;;2.75;;
53875;SDS011;39789;53.216;5.624;2024-03-23T08:43:41;10.70;;;3.88;;
53875;SDS011;39789;53.216;5.624;2024-03-23T08:48:44;10.80;;;3.70;;
53875;SDS011;39789;53.216;5.624;2024-03-23T08:51:13;17.92;;;4.55;;
53875;SDS011;39789;53.216;5.624;2024-03-23T08:53:40;9.50;;;3.60;;
53875;SDS011;39789;53.216;5.624;2024-03-23T08:56:10;15.82;;;4.53;;
53875;SDS011;39789;53.216;5.624;2024-03-23T08:58:37;16.75;;;4.38;;
53875;SDS011;39789;53.216;5.624;2024-03-23T09:01:04;12.02;;;3.75;;
53875;SDS011;39789;53.216;5.624;2024-03-23T09:03:33;13.50;;;3.55;;
53875;SDS011;39789;53.216;5.624;2024-03-23T09:06:00;15.00;;;3.83;;
53875;SDS011;39789;53.216;5.624;2024-03-23T09:08:31;12.13;;;3.70;;
53875;SDS011;39789;53.216;5.624;2024-03-23T09:10:56;12.60;;;4.80;;
53875;SDS011;39789;53.216;5.624;2024-03-23T09:13:22;12.25;;;3.65;;
53875;SDS011;39789;53.216;5.624;2024-03-23T09:15:49;11.70;;;3.35;;
53875;SDS011;39789;53.216;5.624;2024-03-23T09:18:16;11.48;;;3.72;;
53875;SDS011;39789;53.216;5.624;2024-03-23T09:20:42;10.43;;;3.50;;
53875;SDS011;39789;53.216;5.624;2024-03-23T09:23:08;8.40;;;3.45;;
53875;SDS011;39789;53.216;5.624;2024-03-23T09:25:37;12.35;;;3.58;;
53875;SDS011;39789;53.216;5.624;2024-03-23T09:28:04;12.93;;;3.15;;
53875;SDS011;39789;53.216;5.624;2024-03-23T09:30:33;10.45;;;2.75;;
53875;SDS011;39789;53.216;5.624;2024-03-23T09:32:58;6.85;;;2.38;;
53875;SDS011;39789;53.216;5.624;2024-03-23T09:35:24;4.60;;;2.13;;
53875;SDS011;39789;53.216;5.624;2024-03-23T09:37:50;10.70;;;2.53;;
53875;SDS011;39789;53.216;5.624;2024-03-23T09:40:15;12.32;;;3.15;;
53875;SDS011;39789;53.216;5.624;2024-03-23T09:42:41;9.45;;;3.15;;
53875;SDS011;39789;53.216;5.624;2024-03-23T09:45:23;10.45;;;3.30;;
53875;SDS011;39789;53.216;5.624;2024-03-23T09:47:52;12.10;;;3.40;;
53875;SDS011;39789;53.216;5.624;2024-03-23T09:50:18;15.95;;;3.40;;
53875;SDS011;39789;53.216;5.624;2024-03-23T09:52:45;5.35;;;2.30;;
53875;SDS011;39789;53.216;5.624;2024-03-23T09:55:11;7.43;;;2.70;;
53875;SDS011;39789;53.216;5.624;2024-03-23T09:57:37;9.70;;;2.53;;
53875;SDS011;39789;53.216;5.624;2024-03-23T10:00:03;7.57;;;2.42;;
53875;SDS011;39789;53.216;5.624;2024-03-23T10:02:29;7.55;;;2.35;;
53875;SDS011;39789;53.216;5.624;2024-03-23T10:04:54;3.63;;;1.80;;
53875;SDS011;39789;53.216;5.624;2024-03-23T10:07:20;3.90;;;2.10;;
53875;SDS011;39789;53.216;5.624;2024-03-23T10:09:50;4.97;;;2.33;;
53875;SDS011;39789;53.216;5.624;2024-03-23T10:12:17;9.73;;;3.17;;
53875;SDS011;39789;53.216;5.624;2024-03-23T10:14:44;16.02;;;4.03;;
53875;SDS011;39789;53.216;5.624;2024-03-23T10:17:17;16.80;;;4.00;;
53875;SDS011;39789;53.216;5.624;2024-03-23T10:19:48;8.45;;;3.22;;
53875;SDS011;39789;53.216;5.624;2024-03-23T10:22:17;11.13;;;3.20;;
53875;SDS011;39789;53.216;5.624;2024-03-23T10:24:51;11.27;;;4.25;;
53875;SDS011;39789;53.216;5.624;2024-03-23T10:27:19;10.40;;;3.92;;
53875;SDS011;39789;53.216;5.624;2024-03-23T10:29:46;11.43;;;3.78;;
53875;SDS011;39789;53.216;5.624;2024-03-23T10:32:12;11.13;;;3.40;;
53875;SDS011;39789;53.216;5.624;2024-03-23T10:34:39;10.32;;;3.67;;
53875;SDS011;39789;53.216;5.624;2024-03-23T10:37:05;12.10;;;4.10;;
53875;SDS011;39789;53.216;5.624;2024-03-23T10:39:38;12.23;;;3.60;;
53875;SDS011;39789;53.216;5.624;2024-03-23T10:42:05;10.35;;;3.75;;
53875;SDS011;39789;53.216;5.624;2024-03-23T10:44:37;12.00;;;3.30;;
53875;SDS011;39789;53.216;5.624;2024-03-23T10:47:04;9.38;;;3.40;;
53875;SDS011;39789;53.216;5.624;2024-03-23T10:49:31;10.40;;;3.22;;
53875;SDS011;39789;53.216;5.624;2024-03-23T10:51:58;10.38;;;3.35;;
53875;SDS011;39789;53.216;5.624;2024-03-23T10:54:25;9.40;;;3.10;;
53875;SDS011;39789;53.216;5.624;2024-03-23T10:56:54;12.52;;;3.70;;
53875;SDS011;39789;53.216;5.624;2024-03-23T10:59:30;10.52;;;3.20;;
53875;SDS011;39789;53.216;5.624;2024-03-23T11:01:57;9.23;;;3.13;;
53875;SDS011;39789;53.216;5.624;2024-03-23T11:06:57;10.40;;;4.00;;
53875;SDS011;39789;53.216;5.624;2024-03-23T11:09:39;7.78;;;3.28;;
53875;SDS011;39789;53.216;5.624;2024-03-23T11:14:47;13.50;;;3.35;;
53875;SDS011;39789;53.216;5.624;2024-03-23T11:17:17;9.82;;;2.80;;
53875;SDS011;39789;53.216;5.624;2024-03-23T11:25:24;11.10;;;2.70;;
53875;SDS011;39789;53.216;5.624;2024-03-23T11:27:51;6.10;;;2.20;;
53875;SDS011;39789;53.216;5.624;2024-03-23T11:30:21;6.72;;;2.75;;
53875;SDS011;39789;53.216;5.624;2024-03-23T11:32:49;8.15;;;2.88;;
53875;SDS011;39789;53.216;5.624;2024-03-23T11:38:12;6.05;;;3.30;;
53875;SDS011;39789;53.216;5.624;2024-03-23T11:40:43;13.93;;;3.50;;
53875;SDS011;39789;53.216;5.624;2024-03-23T11:43:16;9.43;;;4.15;;
53875;SDS011;39789;53.216;5.624;2024-03-23T11:45:44;11.35;;;3.70;;
53875;SDS011;39789;53.216;5.624;2024-03-23T11:48:29;10.30;;;4.32;;
53875;SDS011;39789;53.216;5.624;2024-03-23T11:50:55;11.38;;;3.22;;
53875;SDS011;39789;53.216;5.624;2024-03-23T11:53:25;13.07;;;3.75;;
53875;SDS011;39789;53.216;5.624;2024-03-23T11:55:54;9.43;;;3.17;;
53875;SDS011;39789;53.216;5.624;2024-03-23T11:58:22;10.23;;;2.65;;
53875;SDS011;39789;53.216;5.624;2024-03-23T12:00:52;11.85;;;3.47;;
53875;SDS011;39789;53.216;5.624;2024-03-23T12:03:20;12.13;;;3.70;;
53875;SDS011;39789;53.216;5.624;2024-03-23T12:05:50;12.00;;;3.20;;
53875;SDS011;39789;53.216;5.624;2024-03-23T12:08:22;15.07;;;4.28;;
53875;SDS011;39789;53.216;5.624;2024-03-23T12:10:49;8.15;;;3.53;;
53875;SDS011;39789;53.216;5.624;2024-03-23T12:13:29;11.32;;;3.85;;
53875;SDS011;39789;53.216;5.624;2024-03-23T12:15:54;15.82;;;3.92;;
53875;SDS011;39789;53.216;5.624;2024-03-23T12:18:33;14.73;;;4.32;;
53875;SDS011;39789;53.216;5.624;2024-03-23T12:20:59;13.05;;;4.10;;
53875;SDS011;39789;53.216;5.624;2024-03-23T12:23:25;10.85;;;3.78;;
53875;SDS011;39789;53.216;5.624;2024-03-23T12:25:51;14.40;;;4.18;;
53875;SDS011;39789;53.216;5.624;2024-03-23T12:28:16;12.27;;;3.72;;
53875;SDS011;39789;53.216;5.624;2024-03-23T12:30:42;11.07;;;3.53;;
53875;SDS011;39789;53.216;5.624;2024-03-23T12:33:08;9.18;;;3.40;;
53875;SDS011;39789;53.216;5.624;2024-03-23T12:35:34;13.10;;;3.60;;
53875;SDS011;39789;53.216;5.624;2024-03-23T12:37:59;7.55;;;3.33;;
53875;SDS011;39789;53.216;5.624;2024-03-23T12:40:25;11.98;;;3.80;;
53875;SDS011;39789;53.216;5.624;2024-03-23T12:42:52;9.00;;;3.25;;
53875;SDS011;39789;53.216;5.624;2024-03-23T12:45:18;5.82;;;2.15;;
53875;SDS011;39789;53.216;5.624;2024-03-23T12:47:44;6.57;;;2.22;;
53875;SDS011;39789;53.216;5.624;2024-03-23T12:50:10;7.35;;;2.75;;
53875;SDS011;39789;53.216;5.624;2024-03-23T12:52:36;11.90;;;3.58;;
53875;SDS011;39789;53.216;5.624;2024-03-23T12:55:02;9.93;;;3.22;;
53875;SDS011;39789;53.216;5.624;2024-03-23T12:57:31;15.13;;;3.08;;
53875;SDS011;39789;53.216;5.624;2024-03-23T12:59:58;7.47;;;2.80;;
53875;SDS011;39789;53.216;5.624;2024-03-23T13:02:24;11.93;;;3.72;;
53875;SDS011;39789;53.216;5.624;2024-03-23T13:04:50;15.45;;;4.78;;
53875;SDS011;39789;53.216;5.624;2024-03-23T13:07:17;8.82;;;3.10;;
53875;SDS011;39789;53.216;5.624;2024-03-23T13:09:43;8.63;;;3.15;;
53875;SDS011;39789;53.216;5.624;2024-03-23T13:12:09;10.88;;;3.08;;
53875;SDS011;39789;53.216;5.624;2024-03-23T13:14:37;6.85;;;3.13;;
53875;SDS011;39789;53.216;5.624;2024-03-23T13:17:06;14.48;;;3.45;;
53875;SDS011;39789;53.216;5.624;2024-03-23T13:19:32;12.23;;;4.07;;
53875;SDS011;39789;53.216;5.624;2024-03-23T13:21:59;9.00;;;3.10;;
53875;SDS011;39789;53.216;5.624;2024-03-23T13:24:25;11.63;;;3.33;;
53875;SDS011;39789;53.216;5.624;2024-03-23T13:26:52;8.90;;;3.42;;
53875;SDS011;39789;53.216;5.624;2024-03-23T13:29:19;9.52;;;3.67;;
53875;SDS011;39789;53.216;5.624;2024-03-23T13:31:46;13.40;;;4.13;;
53875;SDS011;39789;53.216;5.624;2024-03-23T13:34:12;11.23;;;3.42;;
53875;SDS011;39789;53.216;5.624;2024-03-23T13:36:40;13.00;;;3.92;;
53875;SDS011;39789;53.216;5.624;2024-03-23T13:39:10;11.07;;;3.25;;
53875;SDS011;39789;53.216;5.624;2024-03-23T13:41:43;8.10;;;3.05;;
53875;SDS011;39789;53.216;5.624;2024-03-23T13:44:10;13.98;;;3.95;;
53875;SDS011;39789;53.216;5.624;2024-03-23T13:46:37;9.43;;;3.15;;
53875;SDS011;39789;53.216;5.624;2024-03-23T13:49:04;11.90;;;3.38;;
53875;SDS011;39789;53.216;5.624;2024-03-23T13:51:31;11.30;;;3.65;;
53875;SDS011;39789;53.216;5.624;2024-03-23T13:53:57;10.20;;;3.22;;
53875;SDS011;39789;53.216;5.624;2024-03-23T13:56:26;13.45;;;3.83;;
53875;SDS011;39789;53.216;5.624;2024-03-23T13:58:53;8.43;;;3.03;;
53875;SDS011;39789;53.216;5.624;2024-03-23T14:01:19;10.40;;;3.08;;
53875;SDS011;39789;53.216;5.624;2024-03-23T14:03:45;11.32;;;3.60;;
53875;SDS011;39789;53.216;5.624;2024-03-23T14:06:10;10.38;;;3.40;;
53875;SDS011;39789;53.216;5.624;2024-03-23T14:08:36;12.10;;;4.18;;
53875;SDS011;39789;53.216;5.624;2024-03-23T14:11:07;12.50;;;3.20;;
53875;SDS011;39789;53.216;5.624;2024-03-23T14:13:36;7.93;;;2.90;;
53875;SDS011;39789;53.216;5.624;2024-03-23T14:16:03;11.75;;;3.13;;
53875;SDS011;39789;53.216;5.624;2024-03-23T14:18:29;9.23;;;3.30;;
53875;SDS011;39789;53.216;5.624;2024-03-23T14:20:58;11.55;;;3.60;;
53875;SDS011;39789;53.216;5.624;2024-03-23T14:23:26;10.70;;;2.95;;
53875;SDS011;39789;53.216;5.624;2024-03-23T14:25:53;10.05;;;2.78;;
53875;SDS011;39789;53.216;5.624;2024-03-23T14:28:19;10.57;;;3.53;;
53875;SDS011;39789;53.216;5.624;2024-03-23T14:30:46;10.95;;;2.95;;
53875;SDS011;39789;53.216;5.624;2024-03-23T14:33:12;9.63;;;3.00;;
53875;SDS011;39789;53.216;5.624;2024-03-23T14:35:38;11.30;;;2.97;;
53875;SDS011;39789;53.216;5.624;2024-03-23T14:38:05;6.43;;;2.85;;
53875;SDS011;39789;53.216;5.624;2024-03-23T14:40:30;13.25;;;3.50;;
53875;SDS011;39789;53.216;5.624;2024-03-23T14:42:56;12.63;;;3.42;;
53875;SDS011;39789;53.216;5.624;2024-03-23T14:45:22;10.35;;;3.70;;
53875;SDS011;39789;53.216;5.624;2024-03-23T14:47:49;8.35;;;3.25;;
53875;SDS011;39789;53.216;5.624;2024-03-23T14:50:15;13.65;;;3.72;;
53875;SDS011;39789;53.216;5.624;2024-03-23T14:52:42;11.95;;;3.45;;
53875;SDS011;39789;53.216;5.624;2024-03-23T14:55:11;14.38;;;3.53;;
53875;SDS011;39789;53.216;5.624;2024-03-23T14:57:37;10.27;;;2.88;;
53875;SDS011;39789;53.216;5.624;2024-03-23T15:00:07;9.52;;;3.38;;
53875;SDS011;39789;53.216;5.624;2024-03-23T15:02:35;8.43;;;2.80;;
53875;SDS011;39789;53.216;5.624;2024-03-23T15:05:04;9.15;;;3.35;;
53875;SDS011;39789;53.216;5.624;2024-03-23T15:07:32;10.32;;;3.30;;
53875;SDS011;39789;53.216;5.624;2024-03-23T15:09:58;6.70;;;2.72;;
53875;SDS011;39789;53.216;5.624;2024-03-23T15:12:24;9.88;;;3.47;;
53875;SDS011;39789;53.216;5.624;2024-03-23T15:14:49;9.65;;;2.97;;
53875;SDS011;39789;53.216;5.624;2024-03-23T15:17:15;9.23;;;3.22;;
53875;SDS011;39789;53.216;5.624;2024-03-23T15:19:43;9.88;;;3.13;;
53875;SDS011;39789;53.216;5.624;2024-03-23T15:22:09;8.88;;;3.13;;
53875;SDS011;39789;53.216;5.624;2024-03-23T15:24:35;10.88;;;2.90;;
53875;SDS011;39789;53.216;5.624;2024-03-23T15:27:04;6.25;;;2.65;;
53875;SDS011;39789;53.216;5.624;2024-03-23T15:29:35;8.25;;;3.47;;
53875;SDS011;39789;53.216;5.624;2024-03-23T15:32:01;8.95;;;3.55;;
53875;SDS011;39789;53.216;5.624;2024-03-23T15:34:28;9.63;;;3.53;;
53875;SDS011;39789;53.216;5.624;2024-03-23T15:36:54;6.85;;;3.40;;
53875;SDS011;39789;53.216;5.624;2024-03-23T15:39:20;8.65;;;2.95;;
53875;SDS011;39789;53.216;5.624;2024-03-23T15:41:47;9.73;;;3.50;;
53875;SDS011;39789;53.216;5.624;2024-03-23T15:44:13;10.23;;;3.83;;
53875;SDS011;39789;53.216;5.624;2024-03-23T15:46:38;12.45;;;4.13;;
53875;SDS011;39789;53.216;5.624;2024-03-23T15:49:07;10.38;;;3.35;;